Time;durP1;ratioP1;P1;durP2;ratioP2;P2;SDS_P1;SDS_P2;PMS_P1;PMS_P2;Temp;Humidity;BMP_temperature;BMP_pressure;BME280_temperature;BME280_humidity;BME280_pressure;Samples;Min_cycle;Max_cycle;Signal;HPM_P1;HPM_P2
2021/06/06 00:01:10;;;;;;;6.63;5.83;;;;;;;17.26;63.74;95088.13;5119797;28;20445;-86
2021/06/06 00:03:41;;;;;;;6.43;5.93;;;;;;;17.21;63.99;95082.50;5119336;28;20519;-86
2021/06/06 00:06:11;;;;;;;5.73;5.07;;;;;;;17.20;63.99;95080.84;5118791;28;21276;-86
2021/06/06 00:08:38;;;;;;;6.27;5.77;;;;;;;17.22;64.38;95081.50;5119745;28;20496;-86
2021/06/06 00:11:07;;;;;;;6.47;5.90;;;;;;;17.22;64.66;95088.63;5118574;27;20436;-85
2021/06/06 00:13:37;;;;;;;6.70;5.60;;;;;;;17.16;64.93;95087.47;5118890;28;20429;-85
2021/06/06 00:16:05;;;;;;;8.03;5.90;;;;;;;17.10;65.30;95079.38;5119115;28;20468;-85
2021/06/06 00:18:31;;;;;;;6.83;6.23;;;;;;;16.98;66.23;95074.38;5099896;28;20455;-86
2021/06/06 00:21:00;;;;;;;5.97;5.47;;;;;;;16.89;66.94;95074.53;5118779;28;20815;-86
2021/06/06 00:23:29;;;;;;;6.90;6.30;;;;;;;16.88;66.38;95072.88;5118776;28;20475;-86
2021/06/06 00:25:56;;;;;;;6.57;6.07;;;;;;;16.79;67.06;95079.16;5118503;28;20567;-86
2021/06/06 00:28:23;;;;;;;8.93;6.50;;;;;;;16.83;67.72;95073.38;5119285;28;20444;-86
2021/06/06 00:30:49;;;;;;;10.13;6.50;;;;;;;16.85;67.37;95070.56;5119055;28;20456;-86
2021/06/06 00:33:16;;;;;;;6.37;5.80;;;;;;;16.85;67.52;95075.84;5083475;28;20450;-86
2021/06/06 00:35:43;;;;;;;6.77;6.27;;;;;;;16.88;67.61;95072.88;5119055;28;20832;-87
2021/06/06 00:38:11;;;;;;;6.50;5.90;;;;;;;16.88;67.27;95070.22;5118807;28;20434;-87
2021/06/06 00:40:38;;;;;;;6.40;6.00;;;;;;;16.84;66.51;95076.84;5116910;28;20450;-85
2021/06/06 00:43:05;;;;;;;12.00;7.10;;;;;;;16.86;66.93;95077.50;5118362;28;20489;-86
2021/06/06 00:45:33;;;;;;;6.90;6.30;;;;;;;16.88;66.86;95072.88;5119234;28;20879;-86
2021/06/06 00:48:00;;;;;;;8.40;6.70;;;;;;;16.86;66.87;95072.22;5119172;28;20930;-86
2021/06/06 00:50:30;;;;;;;7.77;6.60;;;;;;;16.80;67.65;95071.06;5123564;27;20470;-86
2021/06/06 00:53:02;;;;;;;6.93;6.30;;;;;;;16.81;67.74;95077.19;5118962;28;20433;-86
2021/06/06 00:55:32;;;;;;;7.27;6.57;;;;;;;16.80;67.79;95071.06;5118271;28;20444;-85
2021/06/06 00:58:02;;;;;;;7.17;6.47;;;;;;;16.82;68.04;95073.53;5117977;28;20453;-86
2021/06/06 01:00:32;;;;;;;7.93;6.87;;;;;;;16.80;67.83;95071.06;5082176;28;20450;-86
2021/06/06 01:02:59;;;;;;;6.53;6.03;;;;;;;16.80;68.39;95081.66;5118348;28;20450;-86
2021/06/06 01:05:30;;;;;;;7.50;6.77;;;;;;;16.77;68.11;95068.72;5118064;28;20497;-86
2021/06/06 01:07:57;;;;;;;8.77;7.13;;;;;;;16.80;68.30;95071.06;5118426;28;21016;-86
2021/06/06 01:10:24;;;;;;;7.37;6.77;;;;;;;16.82;68.57;95076.19;5117616;28;20969;-86
2021/06/06 01:12:56;;;;;;;7.20;6.60;;;;;;;16.83;68.38;95072.53;5118026;28;20800;-86
2021/06/06 01:15:28;;;;;;;7.90;7.10;;;;;;;16.85;69.03;95078.50;5117700;28;20450;-86
2021/06/06 01:18:02;;;;;;;7.53;6.87;;;;;;;16.86;68.72;95066.91;5117630;28;20450;-86
2021/06/06 01:20:39;;;;;;;7.57;6.77;;;;;;;16.89;68.00;95070.06;5117509;28;20436;-86
2021/06/06 01:23:18;;;;;;;7.40;6.77;;;;;;;16.85;68.66;95071.38;5081437;28;20485;-86
2021/06/06 01:25:49;;;;;;;8.57;7.67;;;;;;;16.86;68.61;95069.56;5118093;28;21003;-86
2021/06/06 01:28:21;;;;;;;7.80;7.00;;;;;;;16.77;68.25;95067.88;5118713;28;20451;-84
2021/06/06 01:30:53;;;;;;;7.43;6.80;;;;;;;16.71;69.35;95062.25;5117193;28;20459;-84
2021/06/06 01:33:24;;;;;;;10.60;7.10;;;;;;;16.63;69.01;95067.50;5117572;28;20450;-84
2021/06/06 01:35:56;;;;;;;11.00;7.50;;;;;;;16.60;69.83;95064.34;5118078;28;20471;-84
2021/06/06 01:38:27;;;;;;;7.63;6.93;;;;;;;16.58;69.39;95061.03;5117618;28;20444;-84
2021/06/06 01:40:58;;;;;;;7.67;7.07;;;;;;;16.54;69.36;95060.53;5117071;28;20447;-84
2021/06/06 01:43:29;;;;;;;8.37;7.70;;;;;;;16.46;69.44;95055.19;5117650;28;20480;-84
2021/06/06 01:46:01;;;;;;;7.70;7.00;;;;;;;16.46;69.68;95051.72;5117335;28;21006;-84
2021/06/06 01:48:29;;;;;;;7.73;7.13;;;;;;;16.43;69.68;95053.69;5117000;28;20451;-84
2021/06/06 01:50:59;;;;;;;7.80;7.10;;;;;;;16.38;69.89;95042.78;5117520;28;20927;-84
2021/06/06 01:53:27;;;;;;;8.63;7.87;;;;;;;16.36;69.62;95038.63;5117772;28;20430;-84
2021/06/06 01:55:58;;;;;;;7.57;6.90;;;;;;;16.36;69.93;95033.34;5117437;28;20424;-85
2021/06/06 01:58:26;;;;;;;8.37;7.67;;;;;;;16.35;69.60;95037.81;5117173;28;20440;-84
2021/06/06 02:00:56;;;;;;;8.57;7.80;;;;;;;16.28;69.01;95028.03;5116852;28;20479;-84
2021/06/06 02:03:23;;;;;;;6.80;6.20;;;;;;;16.23;70.10;95025.03;5116789;28;20498;-84
2021/06/06 02:05:50;;;;;;;8.73;8.00;;;;;;;16.19;69.50;95028.97;5098339;28;20474;-84
2021/06/06 02:08:20;;;;;;;8.63;7.70;;;;;;;16.18;69.94;95027.31;5116577;28;20451;-84
2021/06/06 02:14:14;;;;;;;11.40;7.40;;;;;;;16.01;70.33;95021.97;5115386;28;20428;-84
2021/06/06 02:16:44;;;;;;;8.50;7.10;;;;;;;15.91;70.95;95013.34;5116080;28;20872;-84
2021/06/06 02:19:11;;;;;;;7.60;6.90;;;;;;;15.82;71.49;95016.09;5116484;28;20453;-84
2021/06/06 02:21:38;;;;;;;7.70;7.00;;;;;;;15.79;71.63;95011.94;5116322;28;20999;-84
2021/06/06 02:24:06;;;;;;;8.13;7.43;;;;;;;15.72;72.10;95017.06;5116314;28;20468;-85
2021/06/06 02:26:40;;;;;;;16.03;8.30;;;;;;;15.71;72.15;95014.56;5116706;28;20528;-84
2021/06/06 02:29:14;;;;;;;8.10;7.40;;;;;;;15.76;72.46;95012.28;5116935;28;20825;-85
2021/06/06 02:31:49;;;;;;;9.20;8.23;;;;;;;15.86;72.46;95025.38;5116162;28;20489;-84
2021/06/06 02:34:20;;;;;;;8.20;7.53;;;;;;;15.78;72.50;95015.59;5116918;28;20430;-84
2021/06/06 02:36:54;;;;;;;8.93;8.00;;;;;;;15.71;73.28;95015.41;5116618;28;20459;-84
2021/06/06 02:39:23;;;;;;;9.97;8.00;;;;;;;15.76;73.44;95009.63;5118454;28;20995;-86
2021/06/06 02:41:52;;;;;;;8.33;7.43;;;;;;;15.77;73.17;95019.22;5121001;28;20449;-86
2021/06/06 02:44:24;;;;;;;9.00;8.20;;;;;;;15.85;73.17;95015.78;5120644;28;20452;-86
2021/06/06 02:46:52;;;;;;;11.93;8.80;;;;;;;15.89;72.77;95019.75;5101677;28;20485;-85
2021/06/06 02:49:22;;;;;;;9.93;7.67;;;;;;;15.92;72.71;95017.66;5120292;28;21048;-85
2021/06/06 02:51:52;;;;;;;10.67;9.70;;;;;;;15.92;72.93;95020.28;5121290;28;20451;-85
2021/06/06 02:54:23;;;;;;;8.13;7.33;;;;;;;15.93;72.64;95019.31;5120682;28;20450;-86
2021/06/06 02:56:53;;;;;;;9.93;7.43;;;;;;;15.94;73.01;95015.66;5120290;28;20439;-86
2021/06/06 02:59:26;;;;;;;10.90;9.00;;;;;;;15.95;73.22;95019.97;5120673;28;20443;-85
2021/06/06 03:01:57;;;;;;;8.87;8.07;;;;;;;16.01;72.32;95027.28;5120939;28;20491;-85
2021/06/06 03:04:26;;;;;;;8.83;8.03;;;;;;;16.04;72.36;95029.59;5120468;28;20463;-86
2021/06/06 03:06:58;;;;;;;8.60;7.80;;;;;;;16.04;72.21;95026.13;5121381;28;20470;-84
2021/06/06 03:09:26;;;;;;;8.20;7.37;;;;;;;15.98;72.42;95032.88;5121522;28;20507;-84
2021/06/06 03:11:55;;;;;;;9.80;8.10;;;;;;;15.96;73.03;95034.88;5120315;28;20454;-84
2021/06/06 03:14:26;;;;;;;9.33;8.43;;;;;;;15.99;72.62;95031.91;5120405;28;20438;-84
2021/06/06 03:16:58;;;;;;;9.00;7.83;;;;;;;16.05;73.11;95027.78;5120375;28;20424;-84
2021/06/06 03:19:28;;;;;;;9.40;8.07;;;;;;;16.09;72.92;95035.22;5120202;28;20464;-84
2021/06/06 03:21:56;;;;;;;8.97;8.07;;;;;;;16.22;72.95;95040.09;5120028;28;20488;-84
2021/06/06 03:24:29;;;;;;;16.10;8.23;;;;;;;16.38;72.06;95034.81;5119259;28;20477;-84
2021/06/06 03:26:57;;;;;;;14.50;8.40;;;;;;;16.60;70.56;95037.84;5119734;28;20474;-84
2021/06/06 03:29:29;;;;;;;10.63;8.40;;;;;;;16.85;69.78;95046.69;5120054;28;20451;-84
2021/06/06 03:32:00;;;;;;;10.50;7.40;;;;;;;17.07;68.85;95027.50;5119917;28;20436;-84
2021/06/06 03:34:27;;;;;;;9.10;8.23;;;;;;;17.25;67.90;95033.44;5119627;28;20805;-84
2021/06/06 03:36:54;;;;;;;8.53;7.53;;;;;;;17.43;66.17;95024.47;5119636;28;20449;-84
2021/06/06 03:39:27;;;;;;;8.73;8.03;;;;;;;17.54;66.34;95022.28;5119174;28;20423;-84
2021/06/06 03:41:55;;;;;;;9.23;6.40;;;;;;;17.64;65.83;95011.50;5119312;28;20455;-85
2021/06/06 03:44:22;;;;;;;8.13;7.43;;;;;;;17.71;65.28;95009.84;5119093;28;20419;-84
2021/06/06 03:46:51;;;;;;;12.67;6.93;;;;;;;17.83;65.26;95016.41;5119145;28;20831;-84
2021/06/06 03:49:18;;;;;;;8.03;7.23;;;;;;;17.98;64.71;95008.59;5119194;28;20917;-84
2021/06/06 03:51:46;;;;;;;7.97;7.33;;;;;;;18.18;63.87;95014.28;5118533;28;20918;-84
2021/06/06 03:54:14;;;;;;;6.97;6.47;;;;;;;18.36;63.17;95017.53;5119772;28;20782;-83
2021/06/06 03:56:42;;;;;;;7.20;6.63;;;;;;;18.66;62.80;95017.72;5118984;28;20476;-84
2021/06/06 03:59:11;;;;;;;6.87;6.30;;;;;;;18.98;61.13;95024.63;5119384;28;20821;-84
2021/06/06 04:01:38;;;;;;;8.00;6.20;;;;;;;19.35;60.21;95013.16;5119129;28;20436;-84
2021/06/06 04:04:06;;;;;;;7.50;6.80;;;;;;;19.76;58.17;95017.09;5119245;28;20441;-84
2021/06/06 04:06:33;;;;;;;8.43;7.70;;;;;;;20.15;57.37;95009.81;5118892;28;20495;-84
2021/06/06 04:09:01;;;;;;;7.10;6.50;;;;;;;20.52;56.56;95014.19;5119390;28;20431;-84
2021/06/06 04:11:29;;;;;;;7.77;6.93;;;;;;;20.84;55.15;95011.06;5119372;28;20990;-84
2021/06/06 04:13:55;;;;;;;7.20;6.50;;;;;;;21.22;54.93;95014.28;5119559;28;20922;-85
2021/06/06 04:16:22;;;;;;;15.70;7.13;;;;;;;21.52;54.00;95014.13;5119363;28;20435;-84
2021/06/06 04:18:49;;;;;;;7.27;6.77;;;;;;;21.76;53.23;95012.88;5119482;28;20832;-85
2021/06/06 04:21:19;;;;;;;8.70;7.07;;;;;;;21.94;52.38;95019.34;5118901;28;20459;-84
2021/06/06 04:23:46;;;;;;;8.43;6.77;;;;;;;22.01;52.41;95019.41;5118978;28;20467;-84
2021/06/06 04:26:13;;;;;;;7.90;6.93;;;;;;;22.13;52.19;95017.84;5118438;28;20475;-84
2021/06/06 04:28:39;;;;;;;7.83;7.03;;;;;;;22.29;52.08;95022.03;5120071;28;20433;-86
2021/06/06 04:31:07;;;;;;;9.00;7.20;;;;;;;22.21;51.45;95015.00;5118374;28;20445;-85
2021/06/06 04:33:34;;;;;;;13.80;7.83;;;;;;;22.12;51.86;95018.88;5118585;28;20431;-85
2021/06/06 04:36:01;;;;;;;10.63;7.77;;;;;;;22.17;51.89;95027.09;5118186;28;20458;-84
2021/06/06 04:38:30;;;;;;;8.27;7.57;;;;;;;21.83;52.46;95021.75;5118197;28;20424;-86
2021/06/06 04:40:59;;;;;;;9.30;8.40;;;;;;;21.76;52.81;95027.06;5118593;28;20477;-86
2021/06/06 04:43:26;;;;;;;8.27;7.43;;;;;;;21.94;52.85;95029.22;5118619;28;20476;-85
2021/06/06 04:45:53;;;;;;;13.00;7.70;;;;;;;21.98;51.68;95030.50;5118530;28;21028;-89
2021/06/06 04:48:25;;;;;;;9.47;8.47;;;;;;;21.98;52.06;95035.84;5119538;28;20451;-87
2021/06/06 04:50:52;;;;;;;9.93;8.40;;;;;;;22.04;52.24;95039.59;5118938;28;20444;-88
2021/06/06 04:53:18;;;;;;;12.47;9.63;;;;;;;22.01;52.00;95035.44;5119262;27;20960;-85
2021/06/06 04:55:47;;;;;;;21.50;11.30;;;;;;;22.03;52.07;95033.38;5117750;28;20424;-89
2021/06/06 04:58:16;;;;;;;13.90;9.80;;;;;;;22.39;52.20;95040.38;5118425;28;20440;-89
2021/06/06 05:00:42;;;;;;;27.10;15.80;;;;;;;;;;5120282;28;20441;-87
2021/06/06 05:03:10;;;;;;;27.27;15.80;;;;;;;22.62;51.66;95051.59;5116808;28;20462;-86
2021/06/06 05:05:36;;;;;;;38.30;20.80;;;;;;;22.90;49.02;95039.97;5117470;28;20491;-85
2021/06/06 05:08:04;;;;;;;34.40;21.23;;;;;;;23.13;48.47;95040.41;5082009;28;20458;-85
2021/06/06 05:10:35;;;;;;;25.17;14.93;;;;;;;23.59;48.30;95034.31;5118249;28;20914;-89
2021/06/06 05:13:05;;;;;;;17.33;12.73;;;;;;;24.16;47.02;95040.81;5119461;28;20795;-89
2021/06/06 05:15:31;;;;;;;19.90;14.37;;;;;;;24.50;47.18;95035.16;5119158;27;20440;-89
2021/06/06 05:17:59;;;;;;;19.73;12.27;;;;;;;24.77;46.14;95029.69;5119730;28;20516;-89
2021/06/06 05:20:28;;;;;;;22.47;13.77;;;;;;;24.98;44.60;95032.91;5120491;28;20457;-90
2021/06/06 05:22:55;;;;;;;20.23;13.37;;;;;;;25.26;45.45;95032.53;5119875;28;20448;-85
2021/06/06 05:25:23;;;;;;;24.20;12.90;;;;;;;25.59;44.26;95031.44;5118688;28;20485;-86
2021/06/06 05:27:49;;;;;;;16.10;9.60;;;;;;;25.77;43.18;95026.16;5117588;28;20459;-87
2021/06/06 05:30:22;;;;;;;12.43;8.60;;;;;;;26.06;42.82;95026.50;5117114;28;20955;-85
2021/06/06 05:32:49;;;;;;;9.47;7.50;;;;;;;26.28;42.99;95021.50;5117288;28;20465;-89
2021/06/06 05:35:18;;;;;;;11.47;7.30;;;;;;;26.43;41.40;95022.81;5118334;28;20500;-87
2021/06/06 05:37:44;;;;;;;6.00;5.60;;;;;;;26.66;40.85;95016.75;5117480;28;20445;-86
2021/06/06 05:40:12;;;;;;;7.33;6.63;;;;;;;26.71;40.82;95014.19;5117536;28;20460;-86
2021/06/06 05:42:39;;;;;;;9.73;8.07;;;;;;;26.89;40.34;95015.19;5081575;28;20443;-85
2021/06/06 05:45:06;;;;;;;10.20;8.50;;;;;;;27.06;41.40;95017.06;5116638;28;20450;-83
2021/06/06 05:47:34;;;;;;;9.57;8.57;;;;;;;27.11;39.51;95008.28;5116958;28;20437;-85
2021/06/06 05:50:01;;;;;;;12.60;8.83;;;;;;;27.25;39.51;95011.63;5116850;28;20446;-84
2021/06/06 05:52:27;;;;;;;13.00;9.73;;;;;;;27.45;38.71;95014.81;5116155;28;20446;-86
2021/06/06 05:54:54;;;;;;;10.53;9.00;;;;;;;27.55;39.39;95008.88;5116344;28;20443;-88
2021/06/06 05:57:21;;;;;;;11.20;8.40;;;;;;;27.66;39.45;95010.78;5116444;28;20938;-85
2021/06/06 05:59:47;;;;;;;9.90;8.30;;;;;;;27.74;38.98;95011.25;5115145;28;20783;-82
2021/06/06 06:02:14;;;;;;;8.73;7.93;;;;;;;27.72;38.49;95010.66;5079227;28;20435;-82
2021/06/06 06:04:42;;;;;;;12.17;8.10;;;;;;;27.83;38.69;95011.75;5115525;28;20435;-82
2021/06/06 06:07:08;;;;;;;8.67;7.73;;;;;;;28.04;39.32;95010.31;5115263;28;20977;-85
2021/06/06 06:09:35;;;;;;;10.13;7.97;;;;;;;28.11;38.72;95008.34;5114841;28;20815;-82
2021/06/06 06:12:01;;;;;;;10.30;8.60;;;;;;;27.94;37.95;95008.22;5114566;28;20435;-81
2021/06/06 06:14:28;;;;;;;9.53;8.07;;;;;;;28.04;38.23;95013.81;5114633;28;20472;-83
2021/06/06 06:16:54;;;;;;;9.97;7.27;;;;;;;27.59;39.09;95010.03;5114797;28;20427;-81
2021/06/06 06:26:12;;;;;;;10.67;8.20;;;;;;;27.34;38.99;95015.63;5073114;28;20967;-83
2021/06/06 06:28:40;;;;;;;11.20;8.70;;;;;;;26.96;39.86;95002.47;5074385;28;20425;-83
2021/06/06 06:31:06;;;;;;;11.37;9.73;;;;;;;27.02;41.43;95009.66;5073450;28;20436;-82
2021/06/06 06:33:33;;;;;;;11.80;9.23;;;;;;;27.17;41.36;95018.13;5074509;28;20787;-83
2021/06/06 06:36:00;;;;;;;14.43;10.27;;;;;;;26.14;41.79;95018.16;5073964;28;20457;-81
2021/06/06 06:38:27;;;;;;;12.53;9.40;;;;;;;26.05;42.47;95014.13;5074270;28;20432;-81
2021/06/06 06:40:54;;;;;;;10.50;9.00;;;;;;;25.71;42.44;95013.59;5073581;28;20502;-82
2021/06/06 06:43:22;;;;;;;15.07;10.13;;;;;;;25.71;43.50;95018.97;5055591;28;20436;-81
2021/06/06 06:45:49;;;;;;;12.47;10.67;;;;;;;25.62;43.21;95014.88;5073863;28;20835;-81
2021/06/06 06:48:18;;;;;;;13.00;10.20;;;;;;;25.86;41.98;95013.25;5073708;28;20443;-81
2021/06/06 06:50:46;;;;;;;14.20;9.80;;;;;;;26.10;42.49;95006.19;5073911;28;20932;-81
2021/06/06 06:53:14;;;;;;;8.93;8.10;;;;;;;26.25;41.80;95012.00;5072595;28;20440;-81
2021/06/06 06:55:41;;;;;;;15.23;10.30;;;;;;;26.54;42.89;95013.97;5072563;28;20983;-80
2021/06/06 06:58:08;;;;;;;15.50;10.10;;;;;;;26.90;42.21;95011.47;5072830;28;20809;-81
2021/06/06 07:00:39;;;;;;;13.47;11.27;;;;;;;26.96;41.86;95011.38;5073835;28;20436;-81
2021/06/06 07:03:07;;;;;;;11.07;9.93;;;;;;;26.34;41.77;95010.72;5076075;28;20453;-82
2021/06/06 07:05:33;;;;;;;21.10;10.47;;;;;;;26.60;42.70;95019.50;5079897;28;20480;-82
2021/06/06 07:08:00;;;;;;;11.53;10.17;;;;;;;26.35;43.09;95015.06;5062838;28;20469;-80
2021/06/06 07:10:31;;;;;;;14.20;9.60;;;;;;;26.37;43.92;95009.44;5053354;28;20450;-83
2021/06/06 07:13:00;;;;;;;17.60;9.53;;;;;;;26.29;43.82;95010.50;5078319;28;20511;-81
2021/06/06 07:15:29;;;;;;;12.10;9.30;;;;;;;26.32;43.52;95006.59;5081840;28;20947;-83
2021/06/06 07:17:57;;;;;;;15.53;9.03;;;;;;;26.07;43.33;95003.97;5073291;28;20463;-82
2021/06/06 07:20:26;;;;;;;13.73;8.30;;;;;;;26.00;44.01;95000.50;5030070;28;20455;-82
2021/06/06 07:22:53;;;;;;;11.60;8.30;;;;;;;25.99;44.53;95006.91;5054070;28;20443;-81
2021/06/06 07:25:21;;;;;;;9.77;8.83;;;;;;;26.11;44.67;95005.16;5103540;28;20458;-82
2021/06/06 07:27:48;;;;;;;11.70;8.57;;;;;;;26.37;43.86;95001.38;5114683;28;20447;-82
2021/06/06 07:30:18;;;;;;;16.30;8.87;;;;;;;26.12;43.08;95009.47;5116243;28;20863;-81
2021/06/06 07:32:44;;;;;;;14.53;10.10;;;;;;;26.25;43.81;95009.31;5116247;28;20434;-81
2021/06/06 07:35:14;;;;;;;22.73;9.47;;;;;;;26.46;42.94;95011.59;5116136;27;20929;-81
2021/06/06 07:37:40;;;;;;;13.20;8.83;;;;;;;26.67;42.57;95006.81;5115365;28;20443;-81
2021/06/06 07:40:09;;;;;;;10.27;7.70;;;;;;;26.92;42.42;95002.13;5116188;28;20449;-81
2021/06/06 07:42:36;;;;;;;12.30;8.60;;;;;;;27.12;42.70;94999.16;5116471;28;20455;-81
2021/06/06 07:45:04;;;;;;;9.70;8.80;;;;;;;27.37;42.68;94993.59;5117354;28;20458;-82
2021/06/06 07:47:30;;;;;;;11.90;10.10;;;;;;;26.81;41.23;95002.88;5117479;28;20475;-81
2021/06/06 07:49:57;;;;;;;10.93;9.83;;;;;;;26.83;41.72;94996.22;5118110;28;20454;-82
2021/06/06 07:52:25;;;;;;;15.80;9.40;;;;;;;26.93;41.42;94997.56;5117375;28;20467;-82
2021/06/06 07:54:52;;;;;;;10.00;9.00;;;;;;;27.11;42.32;95008.28;5117593;28;20423;-81
2021/06/06 08:00:43;;;;;;;12.20;9.17;;;;;;;27.54;41.50;95002.66;5117020;28;20434;-82
2021/06/06 08:03:11;;;;;;;22.00;9.77;;;;;;;27.72;41.95;94994.47;5116843;28;20427;-80
2021/06/06 08:05:39;;;;;;;16.40;10.53;;;;;;;27.80;40.84;94996.03;5116422;28;20524;-80
2021/06/06 08:08:08;;;;;;;9.10;8.37;;;;;;;27.94;41.30;94996.59;5098039;28;20934;-79
2021/06/06 08:10:38;;;;;;;9.97;9.00;;;;;;;28.21;40.58;94986.13;5117613;28;20780;-82
2021/06/06 08:13:05;;;;;;;10.77;9.73;;;;;;;28.32;40.55;94982.63;5117443;28;20427;-81
2021/06/06 08:15:32;;;;;;;9.50;8.50;;;;;;;28.45;39.86;94976.97;5116908;28;20427;-81
2021/06/06 08:18:02;;;;;;;13.10;9.10;;;;;;;28.54;40.61;94983.63;5115551;28;20455;-81
2021/06/06 08:20:31;;;;;;;9.90;8.90;;;;;;;28.58;40.96;94973.16;5116031;28;20934;-81
2021/06/06 08:22:58;;;;;;;10.70;9.37;;;;;;;28.47;40.12;94968.63;5117221;28;20447;-80
2021/06/06 08:25:26;;;;;;;16.03;9.77;;;;;;;28.58;41.08;94981.25;5117523;28;20482;-81
2021/06/06 08:27:53;;;;;;;9.53;8.70;;;;;;;28.60;40.79;94968.34;5117945;28;20438;-81
2021/06/06 08:30:30;;;;;;;10.80;8.87;;;;;;;28.54;39.79;94966.59;5117227;28;20450;-82
2021/06/06 08:32:57;;;;;;;9.83;8.87;;;;;;;28.52;40.52;94963.31;5117095;28;20957;-82
2021/06/06 08:35:24;;;;;;;13.50;8.33;;;;;;;28.49;40.61;94959.22;5116475;28;20844;-81
2021/06/06 08:37:51;;;;;;;12.00;8.90;;;;;;;28.26;40.77;94946.59;5116018;28;20436;-82
2021/06/06 08:40:27;;;;;;;9.13;7.90;;;;;;;28.18;40.32;94949.66;5081156;28;20431;-82
2021/06/06 08:42:54;;;;;;;10.40;8.20;;;;;;;28.14;41.41;94940.41;5079154;28;20431;-81
2021/06/06 08:45:30;;;;;;;8.63;7.83;;;;;;;28.24;43.15;94947.88;5097460;28;20439;-82
2021/06/06 08:47:58;;;;;;;14.53;9.13;;;;;;;28.29;42.12;94945.31;5116326;28;20431;-82
2021/06/06 08:50:29;;;;;;;8.03;7.27;;;;;;;28.41;40.92;94934.50;5116514;28;20443;-81
2021/06/06 08:53:07;;;;;;;8.47;7.17;;;;;;;28.25;41.45;94936.88;5116060;27;20514;-81
2021/06/06 08:55:47;;;;;;;8.00;7.30;;;;;;;28.05;40.92;94934.56;5116044;28;20435;-81
2021/06/06 08:58:29;;;;;;;9.10;8.30;;;;;;;27.72;42.10;94929.75;5116631;28;20955;-80
2021/06/06 09:01:03;;;;;;;9.43;8.27;;;;;;;27.83;42.20;94936.22;5095815;28;20440;-80
2021/06/06 09:03:31;;;;;;;9.73;8.73;;;;;;;27.95;42.09;94938.88;5108226;28;20447;-80
2021/06/06 09:06:04;;;;;;;9.60;7.80;;;;;;;27.93;41.72;94935.59;5116308;27;20516;-80
2021/06/06 09:11:58;;;;;;;12.03;8.17;;;;;;;28.03;42.77;94914.22;5135174;27;20467;-82
2021/06/06 09:14:24;;;;;;;10.27;9.07;;;;;;;28.05;42.82;94923.75;5125969;27;20431;-81
2021/06/06 09:16:56;;;;;;;11.13;8.10;;;;;;;27.84;41.89;94910.88;5114222;28;20974;-81
2021/06/06 09:19:25;;;;;;;8.37;7.67;;;;;;;27.53;41.97;94920.13;5115671;28;20450;-81
2021/06/06 09:21:57;;;;;;;13.90;8.67;;;;;;;27.62;41.96;94918.75;5116587;28;20554;-84
2021/06/06 09:24:33;;;;;;;10.77;8.03;;;;;;;27.76;42.92;94917.47;5117662;28;20897;-83
2021/06/06 09:27:13;;;;;;;9.00;8.10;;;;;;;27.71;40.51;94906.53;5117582;28;20577;-83
2021/06/06 09:29:41;;;;;;;13.33;7.67;;;;;;;27.72;40.86;94910.06;5116111;28;20435;-82
2021/06/06 09:32:11;;;;;;;9.53;8.60;;;;;;;27.84;41.03;94920.84;5115576;28;20443;-84
2021/06/06 09:34:38;;;;;;;10.03;8.00;;;;;;;27.96;38.45;94900.06;5117977;28;20450;-84
2021/06/06 09:37:11;;;;;;;10.00;8.35;;;;;;;28.11;40.89;94900.41;5098245;28;20489;-83
2021/06/06 09:39:40;;;;;;;8.17;7.53;;;;;;;28.28;40.27;94897.78;5116486;28;20229;-83
2021/06/06 09:42:22;;;;;;;8.80;8.00;;;;;;;28.05;38.94;94898.66;5115238;28;20448;-83
2021/06/06 09:45:03;;;;;;;12.50;8.80;;;;;;;27.81;39.51;94891.66;5115979;28;20511;-82
2021/06/06 09:47:30;;;;;;;9.60;8.50;;;;;;;27.35;40.90;94890.59;5116583;28;20482;-84
2021/06/06 09:50:08;;;;;;;10.73;8.93;;;;;;;27.12;41.78;94891.38;5116427;28;20934;-85
2021/06/06 09:52:41;;;;;;;8.93;8.13;;;;;;;27.14;40.57;94895.47;5116781;28;20442;-85
2021/06/06 09:55:17;;;;;;;9.57;8.57;;;;;;;27.13;41.14;94883.06;5116845;28;20468;-85
2021/06/06 09:57:47;;;;;;;9.70;8.97;;;;;;;27.21;41.08;94889.19;5116749;28;20445;-85
2021/06/06 10:00:25;;;;;;;8.80;8.00;;;;;;;27.28;39.78;94889.88;5117068;27;20931;-85
2021/06/06 10:02:54;;;;;;;12.23;9.90;;;;;;;27.32;40.31;94877.59;5116879;28;20503;-86
2021/06/06 10:05:26;;;;;;;14.43;8.10;;;;;;;27.41;41.00;94876.16;5117540;28;20439;-84
2021/06/06 10:07:58;;;;;;;10.60;8.03;;;;;;;27.45;40.51;94882.72;5116020;28;20517;-84
2021/06/06 10:10:29;;;;;;;8.23;7.43;;;;;;;27.51;39.67;94872.91;5117377;28;20866;-85
2021/06/06 10:13:00;;;;;;;15.57;8.40;;;;;;;27.50;38.23;94868.56;5116934;28;20435;-84
2021/06/06 10:15:47;;;;;;;9.03;8.13;;;;;;;27.38;39.82;94873.94;5114172;28;20819;-82
2021/06/06 10:18:17;;;;;;;11.83;9.13;;;;;;;27.39;40.31;94872.88;5115183;28;20447;-82
2021/06/06 10:20:47;;;;;;;13.27;9.03;;;;;;;27.42;41.86;94864.31;5112910;28;20786;-82
2021/06/06 10:23:20;;;;;;;13.03;9.60;;;;;;;27.53;40.85;94862.69;5113352;28;20439;-82
2021/06/06 10:25:51;;;;;;;7.87;7.17;;;;;;;27.64;39.34;94853.81;5115278;28;20463;-82
2021/06/06 10:28:26;;;;;;;10.20;8.30;;;;;;;27.55;38.96;94841.72;5114667;28;20456;-83
2021/06/06 10:31:02;;;;;;;9.30;8.37;;;;;;;27.54;40.23;94849.00;5115035;28;20426;-83
2021/06/06 10:33:32;;;;;;;11.23;9.03;;;;;;;27.72;40.68;94854.25;5113685;28;20464;-84
2021/06/06 10:36:00;;;;;;;9.17;8.27;;;;;;;27.90;39.68;94850.59;5117418;28;20789;-84
2021/06/06 10:38:28;;;;;;;8.60;7.80;;;;;;;28.00;39.09;94853.47;5115519;28;20438;-83
2021/06/06 10:41:01;;;;;;;7.13;6.53;;;;;;;28.14;40.55;94840.56;5116810;28;20439;-82
2021/06/06 10:43:37;;;;;;;8.80;8.00;;;;;;;28.28;40.65;94847.31;5115075;28;20454;-83
2021/06/06 10:46:14;;;;;;;8.57;7.87;;;;;;;28.10;37.66;94843.97;5114830;28;20471;-82
2021/06/06 10:48:46;;;;;;;8.70;7.90;;;;;;;28.11;38.40;94832.94;5114459;28;20435;-82
2021/06/06 10:51:18;;;;;;;8.53;7.83;;;;;;;28.03;38.71;94833.28;5114718;28;20431;-83
2021/06/06 10:53:54;;;;;;;9.17;8.10;;;;;;;27.93;39.99;94833.09;5115048;28;20480;-83
2021/06/06 10:56:35;;;;;;;10.90;8.47;;;;;;;27.91;39.54;94829.81;5115944;28;20434;-83
2021/06/06 10:59:06;;;;;;;8.23;7.60;;;;;;;27.86;41.01;94833.25;5095931;28;20443;-82
2021/06/06 11:01:54;;;;;;;10.00;9.20;;;;;;;27.73;42.00;94828.91;5116659;28;20496;-82
2021/06/06 11:04:23;;;;;;;9.13;8.23;;;;;;;27.84;41.49;94829.16;5117660;28;20474;-83
2021/06/06 11:07:06;;;;;;;14.53;9.13;;;;;;;27.56;40.64;94821.78;5118759;28;20562;-82
2021/06/06 11:09:35;;;;;;;9.13;8.23;;;;;;;27.62;40.39;94815.47;5098160;28;20443;-83
2021/06/06 11:12:08;;;;;;;10.73;8.10;;;;;;;27.64;39.41;94819.56;5119372;28;20439;-83
2021/06/06 11:14:46;;;;;;;8.33;7.60;;;;;;;27.71;40.53;94814.84;5120899;28;20448;-84
2021/06/06 11:17:16;;;;;;;9.33;8.43;;;;;;;27.79;40.28;94815.56;5119731;28;20930;-84
2021/06/06 11:19:43;;;;;;;8.70;7.90;;;;;;;27.72;39.90;94805.72;5120431;28;20442;-84
2021/06/06 11:22:30;;;;;;;10.00;9.10;;;;;;;27.90;41.15;94814.69;5120379;28;20488;-85
2021/06/06 11:24:57;;;;;;;9.23;8.33;;;;;;;27.90;39.17;94812.00;5120810;28;20812;-85
2021/06/06 11:27:31;;;;;;;9.23;7.97;;;;;;;27.98;40.21;94819.72;5120319;28;20973;-84
2021/06/06 11:30:06;;;;;;;8.77;8.07;;;;;;;28.02;40.17;94805.50;5119497;28;20441;-87
2021/06/06 11:32:51;;;;;;;8.90;8.00;;;;;;;28.02;39.25;94808.19;5118200;28;20434;-84
2021/06/06 11:35:41;;;;;;;9.07;8.37;;;;;;;28.15;38.63;94800.91;5119306;28;20925;-85
2021/06/06 11:38:25;;;;;;;9.13;8.33;;;;;;;28.07;38.42;94799.41;5119654;28;20439;-86
2021/06/06 11:41:04;;;;;;;8.83;8.03;;;;;;;27.82;38.84;94801.59;5119517;28;20430;-85
2021/06/06 11:43:34;;;;;;;13.07;7.90;;;;;;;27.61;39.24;94800.31;5119585;28;20431;-85
2021/06/06 11:46:19;;;;;;;7.23;6.53;;;;;;;27.64;38.84;94797.19;5119619;28;20434;-85
2021/06/06 11:48:57;;;;;;;8.77;6.23;;;;;;;27.66;38.62;94795.88;5119408;28;20435;-84
2021/06/06 11:51:31;;;;;;;6.20;5.60;;;;;;;27.52;37.28;94791.78;5119690;28;20427;-84
2021/06/06 11:54:02;;;;;;;7.20;6.53;;;;;;;27.27;36.47;94785.84;5118857;28;20810;-84
2021/06/06 11:56:33;;;;;;;8.37;5.43;;;;;;;27.20;37.73;94774.38;5118871;28;20538;-85
2021/06/06 11:59:09;;;;;;;11.73;5.83;;;;;;;27.14;39.52;94779.63;5118372;27;20435;-84